sensor_id;sensor_type;location;lat;lon;timestamp;P1;durP1;ratioP1;P2;durP2;ratioP2
37495;SDS011;23346;52.088;4.746;2023-09-07T00:01:46;38.97;;;35.45;;
37495;SDS011;23346;52.088;4.746;2023-09-07T00:04:12;38.75;;;34.60;;
37495;SDS011;23346;52.088;4.746;2023-09-07T00:06:39;35.72;;;32.45;;
37495;SDS011;23346;52.088;4.746;2023-09-07T00:09:06;37.53;;;33.83;;
37495;SDS011;23346;52.088;4.746;2023-09-07T00:11:33;36.53;;;33.35;;
37495;SDS011;23346;52.088;4.746;2023-09-07T00:13:59;38.88;;;35.35;;
37495;SDS011;23346;52.088;4.746;2023-09-07T00:16:25;36.38;;;33.15;;
37495;SDS011;23346;52.088;4.746;2023-09-07T00:18:51;37.28;;;33.80;;
37495;SDS011;23346;52.088;4.746;2023-09-07T00:21:16;38.55;;;34.55;;
37495;SDS011;23346;52.088;4.746;2023-09-07T00:23:42;38.58;;;35.33;;
37495;SDS011;23346;52.088;4.746;2023-09-07T00:26:08;36.65;;;33.38;;
37495;SDS011;23346;52.088;4.746;2023-09-07T00:28:37;35.80;;;32.55;;
37495;SDS011;23346;52.088;4.746;2023-09-07T00:31:03;38.35;;;34.50;;
37495;SDS011;23346;52.088;4.746;2023-09-07T00:33:29;39.97;;;36.35;;
37495;SDS011;23346;52.088;4.746;2023-09-07T00:35:55;38.70;;;35.17;;
37495;SDS011;23346;52.088;4.746;2023-09-07T00:38:21;42.22;;;38.80;;
37495;SDS011;23346;52.088;4.746;2023-09-07T00:40:47;41.75;;;37.95;;
37495;SDS011;23346;52.088;4.746;2023-09-07T00:43:12;41.35;;;37.92;;
37495;SDS011;23346;52.088;4.746;2023-09-07T00:45:39;43.03;;;39.55;;
37495;SDS011;23346;52.088;4.746;2023-09-07T00:48:05;43.65;;;39.95;;
37495;SDS011;23346;52.088;4.746;2023-09-07T00:50:31;42.40;;;38.80;;
37495;SDS011;23346;52.088;4.746;2023-09-07T00:52:57;41.55;;;38.15;;
37495;SDS011;23346;52.088;4.746;2023-09-07T00:55:25;39.90;;;36.47;;
37495;SDS011;23346;52.088;4.746;2023-09-07T00:57:51;39.85;;;36.35;;
37495;SDS011;23346;52.088;4.746;2023-09-07T01:00:17;40.20;;;36.63;;
37495;SDS011;23346;52.088;4.746;2023-09-07T01:02:43;39.80;;;36.10;;
37495;SDS011;23346;52.088;4.746;2023-09-07T01:05:09;40.40;;;36.42;;
37495;SDS011;23346;52.088;4.746;2023-09-07T01:07:46;40.53;;;37.00;;
37495;SDS011;23346;52.088;4.746;2023-09-07T01:10:13;43.67;;;39.28;;
37495;SDS011;23346;52.088;4.746;2023-09-07T01:12:39;43.88;;;39.75;;
37495;SDS011;23346;52.088;4.746;2023-09-07T01:15:05;39.67;;;35.97;;
37495;SDS011;23346;52.088;4.746;2023-09-07T01:17:32;41.83;;;37.55;;
37495;SDS011;23346;52.088;4.746;2023-09-07T01:19:59;42.50;;;38.58;;
37495;SDS011;23346;52.088;4.746;2023-09-07T01:22:30;42.38;;;38.38;;
37495;SDS011;23346;52.088;4.746;2023-09-07T01:24:56;44.88;;;40.58;;
37495;SDS011;23346;52.088;4.746;2023-09-07T01:27:23;43.30;;;39.25;;
37495;SDS011;23346;52.088;4.746;2023-09-07T01:29:49;43.58;;;39.55;;
37495;SDS011;23346;52.088;4.746;2023-09-07T01:32:15;44.00;;;39.30;;
37495;SDS011;23346;52.088;4.746;2023-09-07T01:34:41;44.42;;;40.20;;
37495;SDS011;23346;52.088;4.746;2023-09-07T01:37:07;45.90;;;41.40;;
37495;SDS011;23346;52.088;4.746;2023-09-07T01:39:33;45.75;;;40.80;;
37495;SDS011;23346;52.088;4.746;2023-09-07T01:41:59;46.20;;;41.63;;
37495;SDS011;23346;52.088;4.746;2023-09-07T01:44:25;46.97;;;42.33;;
37495;SDS011;23346;52.088;4.746;2023-09-07T01:46:51;45.13;;;41.20;;
37495;SDS011;23346;52.088;4.746;2023-09-07T01:49:17;47.83;;;43.13;;
37495;SDS011;23346;52.088;4.746;2023-09-07T01:51:43;45.55;;;41.38;;
37495;SDS011;23346;52.088;4.746;2023-09-07T01:54:09;46.00;;;41.57;;
37495;SDS011;23346;52.088;4.746;2023-09-07T01:56:35;44.00;;;39.35;;
37495;SDS011;23346;52.088;4.746;2023-09-07T01:59:01;45.97;;;41.35;;
37495;SDS011;23346;52.088;4.746;2023-09-07T02:01:29;46.33;;;41.53;;
37495;SDS011;23346;52.088;4.746;2023-09-07T02:03:55;46.72;;;41.83;;
37495;SDS011;23346;52.088;4.746;2023-09-07T02:06:21;45.88;;;41.20;;
37495;SDS011;23346;52.088;4.746;2023-09-07T02:08:47;46.17;;;41.73;;
37495;SDS011;23346;52.088;4.746;2023-09-07T02:11:13;47.70;;;43.22;;
37495;SDS011;23346;52.088;4.746;2023-09-07T02:13:42;47.95;;;43.05;;
37495;SDS011;23346;52.088;4.746;2023-09-07T02:16:08;50.08;;;45.13;;
37495;SDS011;23346;52.088;4.746;2023-09-07T02:18:35;46.60;;;41.88;;
37495;SDS011;23346;52.088;4.746;2023-09-07T02:21:02;48.50;;;43.35;;
37495;SDS011;23346;52.088;4.746;2023-09-07T02:23:29;48.08;;;43.08;;
37495;SDS011;23346;52.088;4.746;2023-09-07T02:25:55;49.38;;;44.33;;
37495;SDS011;23346;52.088;4.746;2023-09-07T02:28:21;46.10;;;41.35;;
37495;SDS011;23346;52.088;4.746;2023-09-07T02:30:47;50.33;;;45.23;;
37495;SDS011;23346;52.088;4.746;2023-09-07T02:33:13;50.10;;;45.13;;
37495;SDS011;23346;52.088;4.746;2023-09-07T02:35:39;49.75;;;44.40;;
37495;SDS011;23346;52.088;4.746;2023-09-07T02:38:05;50.53;;;45.63;;
37495;SDS011;23346;52.088;4.746;2023-09-07T02:40:31;50.42;;;45.03;;
37495;SDS011;23346;52.088;4.746;2023-09-07T02:42:57;48.27;;;43.30;;
37495;SDS011;23346;52.088;4.746;2023-09-07T02:45:23;50.58;;;44.92;;
37495;SDS011;23346;52.088;4.746;2023-09-07T02:47:48;55.90;;;48.10;;
37495;SDS011;23346;52.088;4.746;2023-09-07T02:50:16;51.67;;;46.17;;
37495;SDS011;23346;52.088;4.746;2023-09-07T02:52:42;55.55;;;49.05;;
37495;SDS011;23346;52.088;4.746;2023-09-07T02:55:08;52.23;;;46.17;;
37495;SDS011;23346;52.088;4.746;2023-09-07T02:57:35;55.25;;;46.92;;
37495;SDS011;23346;52.088;4.746;2023-09-07T03:00:01;52.20;;;46.17;;
37495;SDS011;23346;52.088;4.746;2023-09-07T03:02:34;54.92;;;48.92;;
37495;SDS011;23346;52.088;4.746;2023-09-07T03:05:00;53.53;;;47.83;;
37495;SDS011;23346;52.088;4.746;2023-09-07T03:07:26;59.80;;;48.42;;
37495;SDS011;23346;52.088;4.746;2023-09-07T03:09:52;55.92;;;49.90;;
37495;SDS011;23346;52.088;4.746;2023-09-07T03:12:18;56.60;;;48.63;;
37495;SDS011;23346;52.088;4.746;2023-09-07T03:14:45;54.55;;;48.78;;
37495;SDS011;23346;52.088;4.746;2023-09-07T03:17:11;56.10;;;50.33;;
37495;SDS011;23346;52.088;4.746;2023-09-07T03:19:37;55.83;;;49.72;;
37495;SDS011;23346;52.088;4.746;2023-09-07T03:22:03;56.80;;;51.00;;
37495;SDS011;23346;52.088;4.746;2023-09-07T03:24:29;58.15;;;49.78;;
37495;SDS011;23346;52.088;4.746;2023-09-07T03:26:55;56.13;;;49.17;;
37495;SDS011;23346;52.088;4.746;2023-09-07T03:29:21;55.78;;;48.67;;
37495;SDS011;23346;52.088;4.746;2023-09-07T03:31:47;60.07;;;52.67;;
37495;SDS011;23346;52.088;4.746;2023-09-07T03:34:14;61.22;;;49.80;;
37495;SDS011;23346;52.088;4.746;2023-09-07T03:36:40;56.58;;;50.45;;
37495;SDS011;23346;52.088;4.746;2023-09-07T03:39:06;56.72;;;49.95;;
37495;SDS011;23346;52.088;4.746;2023-09-07T03:41:33;59.10;;;52.75;;
37495;SDS011;23346;52.088;4.746;2023-09-07T03:43:59;53.90;;;48.00;;
37495;SDS011;23346;52.088;4.746;2023-09-07T03:46:25;59.60;;;50.55;;
37495;SDS011;23346;52.088;4.746;2023-09-07T03:48:51;55.75;;;49.83;;
37495;SDS011;23346;52.088;4.746;2023-09-07T03:51:17;57.73;;;51.27;;
37495;SDS011;23346;52.088;4.746;2023-09-07T03:53:43;61.97;;;48.40;;
37495;SDS011;23346;52.088;4.746;2023-09-07T03:56:09;59.00;;;49.63;;
37495;SDS011;23346;52.088;4.746;2023-09-07T03:58:35;64.93;;;52.10;;
37495;SDS011;23346;52.088;4.746;2023-09-07T04:01:01;59.95;;;50.70;;
37495;SDS011;23346;52.088;4.746;2023-09-07T04:03:27;59.67;;;49.22;;
37495;SDS011;23346;52.088;4.746;2023-09-07T04:05:53;62.60;;;52.13;;
37495;SDS011;23346;52.088;4.746;2023-09-07T04:08:19;64.68;;;50.67;;
37495;SDS011;23346;52.088;4.746;2023-09-07T04:10:45;59.93;;;50.57;;
37495;SDS011;23346;52.088;4.746;2023-09-07T04:13:11;66.10;;;49.67;;
37495;SDS011;23346;52.088;4.746;2023-09-07T04:15:43;60.70;;;48.97;;
37495;SDS011;23346;52.088;4.746;2023-09-07T04:18:10;59.63;;;49.30;;
37495;SDS011;23346;52.088;4.746;2023-09-07T04:20:37;61.43;;;47.47;;
37495;SDS011;23346;52.088;4.746;2023-09-07T04:23:04;62.17;;;51.67;;
37495;SDS011;23346;52.088;4.746;2023-09-07T04:25:30;61.40;;;49.35;;
37495;SDS011;23346;52.088;4.746;2023-09-07T04:27:57;61.33;;;49.50;;
37495;SDS011;23346;52.088;4.746;2023-09-07T04:30:23;57.13;;;48.03;;
37495;SDS011;23346;52.088;4.746;2023-09-07T04:32:49;61.10;;;50.60;;
37495;SDS011;23346;52.088;4.746;2023-09-07T04:35:15;60.17;;;49.17;;
37495;SDS011;23346;52.088;4.746;2023-09-07T04:37:42;67.00;;;50.37;;
37495;SDS011;23346;52.088;4.746;2023-09-07T04:40:11;61.38;;;50.08;;
37495;SDS011;23346;52.088;4.746;2023-09-07T04:42:37;70.95;;;50.10;;
37495;SDS011;23346;52.088;4.746;2023-09-07T04:45:04;65.17;;;51.97;;
37495;SDS011;23346;52.088;4.746;2023-09-07T04:47:30;64.37;;;50.80;;
37495;SDS011;23346;52.088;4.746;2023-09-07T04:49:56;68.30;;;51.60;;
37495;SDS011;23346;52.088;4.746;2023-09-07T04:52:22;62.10;;;50.70;;
37495;SDS011;23346;52.088;4.746;2023-09-07T04:54:48;60.05;;;50.00;;
37495;SDS011;23346;52.088;4.746;2023-09-07T04:57:17;67.40;;;51.27;;
37495;SDS011;23346;52.088;4.746;2023-09-07T04:59:43;60.73;;;51.07;;
37495;SDS011;23346;52.088;4.746;2023-09-07T05:02:09;62.37;;;51.60;;
37495;SDS011;23346;52.088;4.746;2023-09-07T05:04:36;62.40;;;54.00;;
37495;SDS011;23346;52.088;4.746;2023-09-07T05:07:02;64.50;;;52.93;;
37495;SDS011;23346;52.088;4.746;2023-09-07T05:09:28;68.33;;;53.00;;
37495;SDS011;23346;52.088;4.746;2023-09-07T05:11:55;68.23;;;51.43;;
37495;SDS011;23346;52.088;4.746;2023-09-07T05:14:21;65.60;;;53.00;;
37495;SDS011;23346;52.088;4.746;2023-09-07T05:16:47;67.37;;;50.77;;
37495;SDS011;23346;52.088;4.746;2023-09-07T05:19:13;69.27;;;51.90;;
37495;SDS011;23346;52.088;4.746;2023-09-07T05:21:39;68.70;;;55.40;;
37495;SDS011;23346;52.088;4.746;2023-09-07T05:24:05;70.93;;;55.70;;
37495;SDS011;23346;52.088;4.746;2023-09-07T05:26:31;76.07;;;59.83;;
37495;SDS011;23346;52.088;4.746;2023-09-07T05:28:57;69.37;;;55.53;;
37495;SDS011;23346;52.088;4.746;2023-09-07T05:31:23;72.70;;;55.90;;
37495;SDS011;23346;52.088;4.746;2023-09-07T05:33:49;80.00;;;59.40;;
37495;SDS011;23346;52.088;4.746;2023-09-07T05:36:16;80.57;;;56.47;;
37495;SDS011;23346;52.088;4.746;2023-09-07T05:38:42;74.33;;;55.70;;
37495;SDS011;23346;52.088;4.746;2023-09-07T05:41:08;75.50;;;57.67;;
37495;SDS011;23346;52.088;4.746;2023-09-07T05:43:34;74.17;;;57.77;;
37495;SDS011;23346;52.088;4.746;2023-09-07T05:46:00;75.13;;;63.87;;
37495;SDS011;23346;52.088;4.746;2023-09-07T05:48:26;80.77;;;66.07;;
37495;SDS011;23346;52.088;4.746;2023-09-07T05:50:52;82.30;;;68.30;;
37495;SDS011;23346;52.088;4.746;2023-09-07T05:53:18;84.93;;;73.85;;
37495;SDS011;23346;52.088;4.746;2023-09-07T05:55:45;85.20;;;73.00;;
37495;SDS011;23346;52.088;4.746;2023-09-07T05:58:12;88.88;;;68.25;;
37495;SDS011;23346;52.088;4.746;2023-09-07T06:00:39;91.30;;;69.63;;
37495;SDS011;23346;52.088;4.746;2023-09-07T06:03:06;87.32;;;72.70;;
37495;SDS011;23346;52.088;4.746;2023-09-07T06:05:33;93.33;;;73.57;;
37495;SDS011;23346;52.088;4.746;2023-09-07T06:07:59;90.13;;;80.60;;
37495;SDS011;23346;52.088;4.746;2023-09-07T06:10:27;88.35;;;78.13;;
37495;SDS011;23346;52.088;4.746;2023-09-07T06:12:53;91.03;;;80.00;;
37495;SDS011;23346;52.088;4.746;2023-09-07T06:15:20;92.47;;;82.38;;
37495;SDS011;23346;52.088;4.746;2023-09-07T06:17:45;97.60;;;76.18;;
37495;SDS011;23346;52.088;4.746;2023-09-07T06:20:11;87.03;;;68.97;;
37495;SDS011;23346;52.088;4.746;2023-09-07T06:22:37;92.75;;;71.22;;
37495;SDS011;23346;52.088;4.746;2023-09-07T06:25:03;84.07;;;64.18;;
37495;SDS011;23346;52.088;4.746;2023-09-07T06:27:29;81.18;;;59.97;;
37495;SDS011;23346;52.088;4.746;2023-09-07T06:29:55;85.32;;;61.65;;
37495;SDS011;23346;52.088;4.746;2023-09-07T06:32:22;94.00;;;62.05;;
37495;SDS011;23346;52.088;4.746;2023-09-07T06:34:48;90.25;;;60.83;;
37495;SDS011;23346;52.088;4.746;2023-09-07T06:37:14;89.57;;;60.00;;
37495;SDS011;23346;52.088;4.746;2023-09-07T06:39:40;86.60;;;62.10;;
37495;SDS011;23346;52.088;4.746;2023-09-07T06:42:09;84.85;;;62.90;;
37495;SDS011;23346;52.088;4.746;2023-09-07T06:44:35;87.18;;;63.72;;
37495;SDS011;23346;52.088;4.746;2023-09-07T06:47:01;88.82;;;63.38;;
37495;SDS011;23346;52.088;4.746;2023-09-07T06:49:27;94.55;;;67.07;;
37495;SDS011;23346;52.088;4.746;2023-09-07T06:51:54;99.75;;;68.68;;
37495;SDS011;23346;52.088;4.746;2023-09-07T06:54:20;91.60;;;63.97;;
37495;SDS011;23346;52.088;4.746;2023-09-07T06:56:46;92.22;;;66.88;;
37495;SDS011;23346;52.088;4.746;2023-09-07T06:59:12;95.30;;;65.95;;
37495;SDS011;23346;52.088;4.746;2023-09-07T07:01:38;105.53;;;65.78;;
37495;SDS011;23346;52.088;4.746;2023-09-07T07:04:04;103.00;;;68.22;;
37495;SDS011;23346;52.088;4.746;2023-09-07T07:06:31;96.60;;;65.10;;
37495;SDS011;23346;52.088;4.746;2023-09-07T07:08:57;102.20;;;67.10;;
37495;SDS011;23346;52.088;4.746;2023-09-07T07:11:23;99.57;;;68.25;;
37495;SDS011;23346;52.088;4.746;2023-09-07T07:13:49;96.63;;;64.40;;
37495;SDS011;23346;52.088;4.746;2023-09-07T07:16:16;100.07;;;68.60;;
37495;SDS011;23346;52.088;4.746;2023-09-07T07:18:42;89.32;;;65.05;;
37495;SDS011;23346;52.088;4.746;2023-09-07T07:21:08;94.97;;;63.40;;
37495;SDS011;23346;52.088;4.746;2023-09-07T07:23:34;91.30;;;60.75;;
37495;SDS011;23346;52.088;4.746;2023-09-07T07:26:00;81.80;;;57.42;;
37495;SDS011;23346;52.088;4.746;2023-09-07T07:28:26;69.75;;;55.45;;
37495;SDS011;23346;52.088;4.746;2023-09-07T07:30:52;60.83;;;53.22;;
37495;SDS011;23346;52.088;4.746;2023-09-07T07:33:18;48.60;;;43.55;;
37495;SDS011;23346;52.088;4.746;2023-09-07T07:35:45;43.03;;;38.78;;
37495;SDS011;23346;52.088;4.746;2023-09-07T07:38:12;43.50;;;39.88;;
37495;SDS011;23346;52.088;4.746;2023-09-07T07:40:39;37.13;;;34.40;;
37495;SDS011;23346;52.088;4.746;2023-09-07T07:43:05;35.05;;;32.35;;
37495;SDS011;23346;52.088;4.746;2023-09-07T07:45:31;34.90;;;32.20;;
37495;SDS011;23346;52.088;4.746;2023-09-07T07:48:01;34.20;;;31.83;;
37495;SDS011;23346;52.088;4.746;2023-09-07T07:50:30;33.08;;;30.30;;
37495;SDS011;23346;52.088;4.746;2023-09-07T07:52:56;29.98;;;27.42;;
37495;SDS011;23346;52.088;4.746;2023-09-07T07:55:22;31.27;;;28.92;;
37495;SDS011;23346;52.088;4.746;2023-09-07T07:57:48;32.53;;;29.95;;
37495;SDS011;23346;52.088;4.746;2023-09-07T08:00:14;33.35;;;30.70;;
37495;SDS011;23346;52.088;4.746;2023-09-07T08:02:40;32.85;;;30.42;;
37495;SDS011;23346;52.088;4.746;2023-09-07T08:05:06;32.08;;;29.88;;
37495;SDS011;23346;52.088;4.746;2023-09-07T08:07:32;34.05;;;31.60;;
37495;SDS011;23346;52.088;4.746;2023-09-07T08:09:58;29.48;;;27.40;;
37495;SDS011;23346;52.088;4.746;2023-09-07T08:12:24;26.13;;;24.33;;
37495;SDS011;23346;52.088;4.746;2023-09-07T08:14:50;25.35;;;23.48;;
37495;SDS011;23346;52.088;4.746;2023-09-07T08:17:16;24.48;;;22.67;;
37495;SDS011;23346;52.088;4.746;2023-09-07T08:19:42;21.85;;;20.05;;
37495;SDS011;23346;52.088;4.746;2023-09-07T08:22:08;26.38;;;24.60;;
37495;SDS011;23346;52.088;4.746;2023-09-07T08:24:34;26.50;;;24.60;;
37495;SDS011;23346;52.088;4.746;2023-09-07T08:27:01;26.67;;;24.77;;
37495;SDS011;23346;52.088;4.746;2023-09-07T08:29:27;25.55;;;23.65;;
37495;SDS011;23346;52.088;4.746;2023-09-07T08:31:56;25.27;;;23.42;;
37495;SDS011;23346;52.088;4.746;2023-09-07T08:34:24;25.65;;;23.38;;
37495;SDS011;23346;52.088;4.746;2023-09-07T08:36:50;22.20;;;20.70;;
37495;SDS011;23346;52.088;4.746;2023-09-07T08:39:18;24.98;;;22.45;;
37495;SDS011;23346;52.088;4.746;2023-09-07T08:41:44;24.35;;;22.65;;
37495;SDS011;23346;52.088;4.746;2023-09-07T08:44:10;24.70;;;23.00;;
37495;SDS011;23346;52.088;4.746;2023-09-07T08:46:37;22.60;;;21.00;;
37495;SDS011;23346;52.088;4.746;2023-09-07T08:49:03;22.83;;;21.38;;
37495;SDS011;23346;52.088;4.746;2023-09-07T08:51:30;25.90;;;24.30;;
37495;SDS011;23346;52.088;4.746;2023-09-07T08:53:57;30.73;;;28.30;;
37495;SDS011;23346;52.088;4.746;2023-09-07T08:56:23;33.92;;;31.60;;
37495;SDS011;23346;52.088;4.746;2023-09-07T08:58:50;28.40;;;26.50;;
37495;SDS011;23346;52.088;4.746;2023-09-07T09:01:16;30.17;;;28.27;;
37495;SDS011;23346;52.088;4.746;2023-09-07T09:03:42;30.10;;;28.25;;
37495;SDS011;23346;52.088;4.746;2023-09-07T09:06:08;27.77;;;26.08;;
37495;SDS011;23346;52.088;4.746;2023-09-07T09:08:50;27.92;;;26.10;;
37495;SDS011;23346;52.088;4.746;2023-09-07T09:11:19;24.42;;;23.08;;
37495;SDS011;23346;52.088;4.746;2023-09-07T09:13:46;24.25;;;22.95;;
37495;SDS011;23346;52.088;4.746;2023-09-07T09:16:12;25.58;;;23.98;;
37495;SDS011;23346;52.088;4.746;2023-09-07T09:18:38;26.75;;;25.05;;
37495;SDS011;23346;52.088;4.746;2023-09-07T09:21:13;33.42;;;31.35;;
37495;SDS011;23346;52.088;4.746;2023-09-07T09:23:40;26.75;;;25.08;;
37495;SDS011;23346;52.088;4.746;2023-09-07T09:26:06;25.13;;;23.40;;
37495;SDS011;23346;52.088;4.746;2023-09-07T09:28:32;23.20;;;21.83;;
37495;SDS011;23346;52.088;4.746;2023-09-07T09:30:59;24.25;;;22.67;;
37495;SDS011;23346;52.088;4.746;2023-09-07T09:33:25;22.92;;;21.35;;
37495;SDS011;23346;52.088;4.746;2023-09-07T09:35:53;16.55;;;15.35;;
37495;SDS011;23346;52.088;4.746;2023-09-07T09:38:19;14.95;;;13.85;;
37495;SDS011;23346;52.088;4.746;2023-09-07T09:40:45;15.70;;;14.55;;
37495;SDS011;23346;52.088;4.746;2023-09-07T09:43:12;15.25;;;14.25;;
37495;SDS011;23346;52.088;4.746;2023-09-07T09:45:38;13.80;;;12.57;;
37495;SDS011;23346;52.088;4.746;2023-09-07T09:48:05;13.73;;;12.75;;
37495;SDS011;23346;52.088;4.746;2023-09-07T09:50:31;14.18;;;13.00;;
37495;SDS011;23346;52.088;4.746;2023-09-07T09:53:02;16.88;;;15.32;;
37495;SDS011;23346;52.088;4.746;2023-09-07T09:55:28;15.93;;;14.73;;
37495;SDS011;23346;52.088;4.746;2023-09-07T09:57:56;16.08;;;14.82;;
37495;SDS011;23346;52.088;4.746;2023-09-07T10:00:22;19.02;;;17.63;;
37495;SDS011;23346;52.088;4.746;2023-09-07T10:02:55;18.77;;;17.40;;
37495;SDS011;23346;52.088;4.746;2023-09-07T10:05:24;19.33;;;18.13;;
37495;SDS011;23346;52.088;4.746;2023-09-07T10:07:50;17.13;;;16.02;;
37495;SDS011;23346;52.088;4.746;2023-09-07T10:10:18;18.65;;;17.35;;
37495;SDS011;23346;52.088;4.746;2023-09-07T10:12:45;20.45;;;19.00;;
37495;SDS011;23346;52.088;4.746;2023-09-07T10:15:24;17.25;;;15.77;;
37495;SDS011;23346;52.088;4.746;2023-09-07T10:17:50;20.80;;;19.27;;
37495;SDS011;23346;52.088;4.746;2023-09-07T10:20:18;18.00;;;16.73;;
37495;SDS011;23346;52.088;4.746;2023-09-07T10:22:43;20.77;;;19.27;;
37495;SDS011;23346;52.088;4.746;2023-09-07T10:25:20;17.90;;;16.50;;
37495;SDS011;23346;52.088;4.746;2023-09-07T10:27:46;18.17;;;16.98;;
37495;SDS011;23346;52.088;4.746;2023-09-07T10:30:12;18.20;;;16.92;;
37495;SDS011;23346;52.088;4.746;2023-09-07T10:32:39;17.38;;;16.17;;
37495;SDS011;23346;52.088;4.746;2023-09-07T10:35:13;13.70;;;12.70;;
37495;SDS011;23346;52.088;4.746;2023-09-07T10:37:39;14.27;;;13.27;;
37495;SDS011;23346;52.088;4.746;2023-09-07T10:40:06;13.35;;;12.40;;
37495;SDS011;23346;52.088;4.746;2023-09-07T10:42:36;12.60;;;11.65;;
37495;SDS011;23346;52.088;4.746;2023-09-07T10:45:12;15.90;;;14.25;;
37495;SDS011;23346;52.088;4.746;2023-09-07T10:47:40;12.82;;;12.02;;
37495;SDS011;23346;52.088;4.746;2023-09-07T10:50:07;13.95;;;13.05;;
37495;SDS011;23346;52.088;4.746;2023-09-07T10:52:33;12.43;;;11.65;;
37495;SDS011;23346;52.088;4.746;2023-09-07T10:54:59;13.68;;;12.77;;
37495;SDS011;23346;52.088;4.746;2023-09-07T10:57:25;12.68;;;11.88;;
37495;SDS011;23346;52.088;4.746;2023-09-07T10:59:51;13.48;;;12.45;;
37495;SDS011;23346;52.088;4.746;2023-09-07T11:02:20;13.57;;;12.57;;
37495;SDS011;23346;52.088;4.746;2023-09-07T11:04:46;15.82;;;14.73;;
37495;SDS011;23346;52.088;4.746;2023-09-07T11:07:12;16.95;;;15.73;;
37495;SDS011;23346;52.088;4.746;2023-09-07T11:09:42;15.70;;;14.52;;
37495;SDS011;23346;52.088;4.746;2023-09-07T11:12:08;14.43;;;13.43;;
37495;SDS011;23346;52.088;4.746;2023-09-07T11:14:34;14.95;;;14.05;;
37495;SDS011;23346;52.088;4.746;2023-09-07T11:17:03;13.55;;;12.75;;
37495;SDS011;23346;52.088;4.746;2023-09-07T11:19:32;14.18;;;13.10;;
37495;SDS011;23346;52.088;4.746;2023-09-07T11:21:58;17.38;;;16.27;;
37495;SDS011;23346;52.088;4.746;2023-09-07T11:24:25;15.88;;;14.80;;
37495;SDS011;23346;52.088;4.746;2023-09-07T11:26:51;13.60;;;12.88;;
37495;SDS011;23346;52.088;4.746;2023-09-07T11:29:17;12.98;;;11.93;;
37495;SDS011;23346;52.088;4.746;2023-09-07T11:31:46;14.60;;;13.55;;
37495;SDS011;23346;52.088;4.746;2023-09-07T11:34:12;15.00;;;13.80;;
37495;SDS011;23346;52.088;4.746;2023-09-07T11:36:42;13.60;;;12.80;;
37495;SDS011;23346;52.088;4.746;2023-09-07T11:39:08;11.80;;;10.95;;
37495;SDS011;23346;52.088;4.746;2023-09-07T11:41:40;14.50;;;13.60;;
37495;SDS011;23346;52.088;4.746;2023-09-07T11:44:07;14.88;;;13.98;;
37495;SDS011;23346;52.088;4.746;2023-09-07T11:46:33;15.27;;;14.18;;
37495;SDS011;23346;52.088;4.746;2023-09-07T11:48:59;14.43;;;13.20;;
37495;SDS011;23346;52.088;4.746;2023-09-07T11:51:25;13.82;;;12.55;;
37495;SDS011;23346;52.088;4.746;2023-09-07T11:53:51;11.90;;;11.02;;
37495;SDS011;23346;52.088;4.746;2023-09-07T11:56:17;13.48;;;12.68;;
37495;SDS011;23346;52.088;4.746;2023-09-07T11:58:43;13.32;;;12.63;;
37495;SDS011;23346;52.088;4.746;2023-09-07T12:01:09;11.75;;;10.95;;
37495;SDS011;23346;52.088;4.746;2023-09-07T12:03:35;10.23;;;9.63;;
37495;SDS011;23346;52.088;4.746;2023-09-07T12:06:01;11.13;;;10.43;;
37495;SDS011;23346;52.088;4.746;2023-09-07T12:08:27;9.45;;;8.75;;
37495;SDS011;23346;52.088;4.746;2023-09-07T12:10:53;13.02;;;11.75;;
37495;SDS011;23346;52.088;4.746;2023-09-07T12:13:19;12.95;;;12.07;;
37495;SDS011;23346;52.088;4.746;2023-09-07T12:15:45;13.25;;;12.20;;
37495;SDS011;23346;52.088;4.746;2023-09-07T12:18:11;16.35;;;15.35;;
37495;SDS011;23346;52.088;4.746;2023-09-07T12:20:37;16.67;;;15.55;;
37495;SDS011;23346;52.088;4.746;2023-09-07T12:23:03;17.35;;;15.90;;
37495;SDS011;23346;52.088;4.746;2023-09-07T12:25:29;23.23;;;21.70;;
37495;SDS011;23346;52.088;4.746;2023-09-07T12:27:57;21.77;;;20.33;;
37495;SDS011;23346;52.088;4.746;2023-09-07T12:30:23;17.95;;;16.95;;
37495;SDS011;23346;52.088;4.746;2023-09-07T12:32:49;17.17;;;16.08;;
37495;SDS011;23346;52.088;4.746;2023-09-07T12:35:15;18.05;;;16.88;;
37495;SDS011;23346;52.088;4.746;2023-09-07T12:37:41;22.83;;;21.40;;
37495;SDS011;23346;52.088;4.746;2023-09-07T12:40:07;17.45;;;16.45;;
37495;SDS011;23346;52.088;4.746;2023-09-07T12:42:41;28.00;;;25.83;;
37495;SDS011;23346;52.088;4.746;2023-09-07T12:45:08;18.08;;;16.98;;
37495;SDS011;23346;52.088;4.746;2023-09-07T12:47:34;21.23;;;19.98;;
37495;SDS011;23346;52.088;4.746;2023-09-07T12:50:00;19.10;;;17.65;;
37495;SDS011;23346;52.088;4.746;2023-09-07T12:52:26;16.80;;;15.77;;
37495;SDS011;23346;52.088;4.746;2023-09-07T12:54:53;21.88;;;20.17;;
37495;SDS011;23346;52.088;4.746;2023-09-07T12:57:19;28.80;;;27.05;;
37495;SDS011;23346;52.088;4.746;2023-09-07T12:59:45;18.90;;;17.42;;
37495;SDS011;23346;52.088;4.746;2023-09-07T13:02:11;19.83;;;18.63;;
37495;SDS011;23346;52.088;4.746;2023-09-07T13:04:36;22.35;;;21.05;;
37495;SDS011;23346;52.088;4.746;2023-09-07T13:07:02;18.85;;;17.58;;
37495;SDS011;23346;52.088;4.746;2023-09-07T13:09:28;20.33;;;18.40;;
37495;SDS011;23346;52.088;4.746;2023-09-07T13:11:54;18.52;;;17.23;;
37495;SDS011;23346;52.088;4.746;2023-09-07T13:14:20;20.75;;;19.25;;
37495;SDS011;23346;52.088;4.746;2023-09-07T13:16:46;18.67;;;17.48;;
37495;SDS011;23346;52.088;4.746;2023-09-07T13:19:12;27.50;;;25.95;;
37495;SDS011;23346;52.088;4.746;2023-09-07T13:21:38;28.00;;;26.30;;
37495;SDS011;23346;52.088;4.746;2023-09-07T13:24:04;34.42;;;32.45;;
37495;SDS011;23346;52.088;4.746;2023-09-07T13:26:30;18.60;;;17.20;;
37495;SDS011;23346;52.088;4.746;2023-09-07T13:28:56;16.67;;;15.77;;
37495;SDS011;23346;52.088;4.746;2023-09-07T13:31:22;18.88;;;17.70;;
37495;SDS011;23346;52.088;4.746;2023-09-07T13:33:48;18.95;;;17.70;;
37495;SDS011;23346;52.088;4.746;2023-09-07T13:36:15;20.95;;;19.17;;
37495;SDS011;23346;52.088;4.746;2023-09-07T13:38:42;17.58;;;16.38;;
37495;SDS011;23346;52.088;4.746;2023-09-07T13:41:08;17.50;;;16.40;;
37495;SDS011;23346;52.088;4.746;2023-09-07T13:43:34;18.10;;;16.40;;
37495;SDS011;23346;52.088;4.746;2023-09-07T13:46:00;17.92;;;16.73;;
37495;SDS011;23346;52.088;4.746;2023-09-07T13:48:26;19.60;;;18.33;;
37495;SDS011;23346;52.088;4.746;2023-09-07T13:50:52;17.30;;;16.20;;
37495;SDS011;23346;52.088;4.746;2023-09-07T13:53:18;19.23;;;17.55;;
37495;SDS011;23346;52.088;4.746;2023-09-07T13:55:44;18.65;;;17.05;;
37495;SDS011;23346;52.088;4.746;2023-09-07T13:58:11;22.35;;;21.05;;
37495;SDS011;23346;52.088;4.746;2023-09-07T14:00:37;21.15;;;19.65;;
37495;SDS011;23346;52.088;4.746;2023-09-07T14:03:03;19.40;;;18.10;;
37495;SDS011;23346;52.088;4.746;2023-09-07T14:05:29;18.25;;;17.20;;
37495;SDS011;23346;52.088;4.746;2023-09-07T14:07:55;18.73;;;17.52;;
37495;SDS011;23346;52.088;4.746;2023-09-07T14:10:22;16.75;;;15.75;;
37495;SDS011;23346;52.088;4.746;2023-09-07T14:12:48;22.60;;;21.13;;
37495;SDS011;23346;52.088;4.746;2023-09-07T14:15:14;15.85;;;14.77;;
37495;SDS011;23346;52.088;4.746;2023-09-07T14:17:40;18.98;;;17.58;;